Etusivu
METAR-TAF:

METAR-TAF

Lentoasemat :

King Cove, Alaska, Yhdysvallat

Leveyspiiri: 55-06-59N, Pituuspiiri: 162-15-58W, korkeus merenpinnasta: 47 m

Tämänhetkinen sää

Tämä raportti tehtiin 1 tunti ja 0 minuuttia sitten, kello 14.56 UTC
Tuuli 21 kn lännestä/lounaasta
Lämpötila 4°C
Kosteus 93%
Ilmanpaine 1018 hPa
Näkyvyys: 16.1 km
selkeää

METAR: PAVC 121456Z AUTO 24021KT 10SM CLR 04/03 A3006 RMK AO2 PK WND 24028/1433 SLP179 6//// T00440033 51009 PNO $

Aika: 07:56 (15:56 UTC)


TAF: puuttuu

Säähavainnot ja -ennusteet yli 4000 lentoasemalta (METAR- ja TAF-raportit).

Käytössä olevat sääasemat on merkitty karttaan keltaisilla ja punaisilla pisteillä.

Aseta hiiri pisteen päälle nähdäksesi sääaseman nimen.

Klikkaa sitten nähdäksesi säähavainnot ja -ennusteet.

Kartan vaihtaminen: klikkaa mustalla rastilla varustettuja vihreitä pisteitä, niin voit zoomata sisään; viivalla varustettua vihreää pistettä, niin voit zoomata ulos tai vihreitä nuolia, niin pääset viereisille kartoille.


METAR-TAF: